Maersk Magellan — 9V6751 — position and weather

sailwx.info

Track history (hours):
 
Tides and Currents Weather Stations Pressure Air Temp Water Temp Dewpoint Dewpoint Depression Visibility Wind Speed Wind Dir Waves Ship Positions

Maersk Magellan

Last reported at 2015-Jul-22 07:09 UTC. Time now 2015-Jul-31 05:01 UTC.
Position N 36°15' W 030°11'.
Warning: this ship's position is 8 days out of date.

Length 183 m; draft 12.4 m.

Type: Ship. MMSI: 566549000.

Date/timePositionNaut miles runAvg speedWind from/ knotsBaromVisibWave heightAir tempDewpointWater temp
2015-Jul-22 07:09N 36°15' W 030°11'2911.0
2015-Jul-22 04:32N 36°18' W 029°36'1211.8
2015-Jul-22 03:32N 36°18' W 029°21'2311.8
2015-Jul-22 01:34N 36°20' W 028°52'5312.0
2015-Jul-21 21:07N 36°25' W 027°46'611.6
2015-Jul-21 20:33N 36°25' W 027°38'1612.0
2015-Jul-21 19:13N 36°26' W 027°18'1011.9
2015-Jul-21 18:25N 36°27' W 027°07'1311.9
2015-Jul-21 17:18N 36°28' W 026°50'911.7
2015-Jul-21 16:31N 36°29' W 026°39'2811.4
2015-Jul-21 14:06N 36°30' W 026°04'611.8
2015-Jul-21 13:33N 36°30' W 025°56'1111.4
2015-Jul-21 12:33N 36°31' W 025°42'1211.6
2015-Jul-21 11:33N 36°31' W 025°28'1212.0
2015-Jul-21 10:33N 36°32' W 025°13'1212.4
2015-Jul-21 09:33N 36°33' W 024°57'1212.0
2015-Jul-21 08:34N 36°33' W 024°42'1211.8
2015-Jul-21 07:33N 36°33' W 024°28'1211.6
2015-Jul-21 06:33N 36°34' W 024°13'1211.6
2015-Jul-21 05:33N 36°34' W 023°59'1211.6
2015-Jul-21 04:33N 36°34' W 023°45'1211.7
2015-Jul-21 03:33N 36°35' W 023°30'1211.7
2015-Jul-21 02:33N 36°36' W 023°15'1312.0
2015-Jul-21 01:29N 36°36' W 022°59'1112.0
2015-Jul-21 00:33N 36°36' W 022°46'1411.8
2015-Jul-20 23:23N 36°37' W 022°28'56011.9
2015-Jul-19 00:26N 36°09' W 010°53'1011.9
2015-Jul-18 23:33N 36°08' W 010°40'1211.8
2015-Jul-18 22:33N 36°08' W 010°26'1211.6
2015-Jul-18 21:33N 36°07' W 010°11'1212.2
2015-Jul-18 20:33N 36°07' W 009°56'1212.1
2015-Jul-18 19:33N 36°06' W 009°41'1211.7
2015-Jul-18 18:33N 36°05' W 009°27'1212.0
2015-Jul-18 17:33N 36°04' W 009°12'1412.2
2015-Jul-18 16:25N 36°03' W 008°55'3712.0
2015-Jul-18 13:18N 36°02' W 008°09'24011.5
2015-Jul-17 16:26N 36°18' W 003°12'1011.9
2015-Jul-17 15:33N 36°20' W 002°60'1211.8
2015-Jul-17 14:33N 36°21' W 002°45'1211.9
2015-Jul-17 13:33N 36°22' W 002°30'1212.0
2015-Jul-17 12:32N 36°25' W 002°15'1212.0
2015-Jul-17 11:33N 36°28' W 002°01'1212.1
2015-Jul-17 10:33N 36°31' W 001°47'1311.8
2015-Jul-17 09:26N 36°34' W 001°31'1112.0
2015-Jul-17 08:33N 36°36' W 001°18'1212.1
2015-Jul-17 07:33N 36°39' W 001°03'1212.2
2015-Jul-17 06:33N 36°41' W 000°48'1212.0
2015-Jul-17 05:32N 36°44' W 000°34'1212.0
2015-Jul-17 04:33N 36°47' W 000°19'1212.0
2015-Jul-17 03:33N 36°50' W 000°04'1212.1
2015-Jul-17 02:33N 36°52' E 000°10'1211.9
2015-Jul-17 01:33N 36°55' E 000°25'1212.0
2015-Jul-17 00:33N 36°58' E 000°39'1211.9
2015-Jul-16 23:33N 37°01' E 000°54'1211.6
2015-Jul-16 22:33N 37°04' E 001°08'2411.9
2015-Jul-16 20:33N 37°09' E 001°37'1312.2
2015-Jul-16 19:31N 37°12' E 001°52'1111.8
2015-Jul-16 18:33N 37°14' E 002°06'1212.0
2015-Jul-16 17:33N 37°17' E 002°21'1212.0
2015-Jul-16 16:33N 37°20' E 002°36'1311.8
2015-Jul-16 15:28N 37°23' E 002°51'2312.0
2015-Jul-16 13:33N 37°28' E 003°20'1212.0
2015-Jul-16 12:33N 37°30' E 003°34'1612.0
2015-Jul-16 11:13N 37°33' E 003°54'1412.2
2015-Jul-16 10:03N 37°35' E 004°12'9212.1
2015-Jul-16 02:25N 37°45' E 006°08'10912.3
2015-Jul-15 17:33N 37°55' E 008°25'2712.2
2015-Jul-15 15:20N 37°58' E 008°59'912.1
2015-Jul-15 14:33N 37°55' E 009°10'8711.8
2015-Jul-15 07:11N 37°35' E 010°57'1012.0
2015-Jul-15 06:19N 37°29' E 011°08'911.8
2015-Jul-15 05:33N 37°24' E 011°18'1212.0
2015-Jul-15 04:31N 37°19' E 011°32'2911.8
2015-Jul-15 02:03N 37°04' E 012°04'611.9
2015-Jul-15 01:33N 37°03' E 012°11'1211.5
2015-Jul-15 00:33N 36°58' E 012°24'1211.6
2015-Jul-14 23:33N 36°53' E 012°37'1211.5
2015-Jul-14 22:33N 36°49' E 012°51'1111.5
2015-Jul-14 21:33N 36°44' E 013°04'1212.0
2015-Jul-14 20:33N 36°39' E 013°17'1212.0
2015-Jul-14 19:33N 36°34' E 013°31'1212.1
2015-Jul-14 18:33N 36°29' E 013°45'1212.0
2015-Jul-14 17:33N 36°24' E 013°58'1211.8
2015-Jul-14 16:33N 36°19' E 014°11'1111.4
2015-Jul-14 15:33N 36°15' E 014°24'1111.4
2015-Jul-14 14:33N 36°12' E 014°38'1211.6
2015-Jul-14 13:33N 36°11' E 014°52'1211.8
2015-Jul-14 12:33N 36°13' E 015°07'1211.8
2015-Jul-14 11:33N 36°12' E 015°21'2812.0
2015-Jul-14 09:13N 36°10' E 015°56'2913.9
2015-Jul-14 07:08N 36°10' E 016°32'3513.0
2015-Jul-14 04:27N 36°09' E 017°15'2511.2
2015-Jul-14 02:16N 36°08' E 017°45'1211.4
2015-Jul-14 01:10N 36°08' E 018°01'3011.4
2015-Jul-13 22:32N 36°06' E 018°38'1511.5
2015-Jul-13 21:14N 36°06' E 018°56'285 9.9
2015-Jul-12 16:29N 37°52' E 024°28'  
Track history (hours):
 
Tides and Currents Weather Stations Pressure Air Temp Water Temp Dewpoint Dewpoint Depression Visibility Wind Speed Wind Dir Waves Ship Positions

Maersk Magellan

Last reported at 2015-Jul-22 07:09 UTC. Time now 2015-Jul-31 05:01 UTC.
Position N 36°15' W 030°11'.
Warning: this ship's position is 8 days out of date.

Length 183 m; draft 12.4 m.

Type: Ship. MMSI: 566549000.

Date/timePositionNaut miles runAvg speedWind from/ knotsBaromVisibWave heightAir tempDewpointWater temp
2015-Jul-22 07:09N 36°15' W 030°11'2911.0
2015-Jul-22 04:32N 36°18' W 029°36'1211.8
2015-Jul-22 03:32N 36°18' W 029°21'2311.8
2015-Jul-22 01:34N 36°20' W 028°52'5312.0
2015-Jul-21 21:07N 36°25' W 027°46'611.6
2015-Jul-21 20:33N 36°25' W 027°38'1612.0
2015-Jul-21 19:13N 36°26' W 027°18'1011.9
2015-Jul-21 18:25N 36°27' W 027°07'1311.9
2015-Jul-21 17:18N 36°28' W 026°50'911.7
2015-Jul-21 16:31N 36°29' W 026°39'2811.4
2015-Jul-21 14:06N 36°30' W 026°04'611.8
2015-Jul-21 13:33N 36°30' W 025°56'1111.4
2015-Jul-21 12:33N 36°31' W 025°42'1211.6
2015-Jul-21 11:33N 36°31' W 025°28'1212.0
2015-Jul-21 10:33N 36°32' W 025°13'1212.4
2015-Jul-21 09:33N 36°33' W 024°57'1212.0
2015-Jul-21 08:34N 36°33' W 024°42'1211.8
2015-Jul-21 07:33N 36°33' W 024°28'1211.6
2015-Jul-21 06:33N 36°34' W 024°13'1211.6
2015-Jul-21 05:33N 36°34' W 023°59'1211.6
2015-Jul-21 04:33N 36°34' W 023°45'1211.7
2015-Jul-21 03:33N 36°35' W 023°30'1211.7
2015-Jul-21 02:33N 36°36' W 023°15'1312.0
2015-Jul-21 01:29N 36°36' W 022°59'1112.0
2015-Jul-21 00:33N 36°36' W 022°46'1411.8
2015-Jul-20 23:23N 36°37' W 022°28'56011.9
2015-Jul-19 00:26N 36°09' W 010°53'1011.9
2015-Jul-18 23:33N 36°08' W 010°40'1211.8
2015-Jul-18 22:33N 36°08' W 010°26'1211.6
2015-Jul-18 21:33N 36°07' W 010°11'1212.2
2015-Jul-18 20:33N 36°07' W 009°56'1212.1
2015-Jul-18 19:33N 36°06' W 009°41'1211.7
2015-Jul-18 18:33N 36°05' W 009°27'1212.0
2015-Jul-18 17:33N 36°04' W 009°12'1412.2
2015-Jul-18 16:25N 36°03' W 008°55'3712.0
2015-Jul-18 13:18N 36°02' W 008°09'24011.5
2015-Jul-17 16:26N 36°18' W 003°12'1011.9
2015-Jul-17 15:33N 36°20' W 002°60'1211.8
2015-Jul-17 14:33N 36°21' W 002°45'1211.9
2015-Jul-17 13:33N 36°22' W 002°30'1212.0
2015-Jul-17 12:32N 36°25' W 002°15'1212.0
2015-Jul-17 11:33N 36°28' W 002°01'1212.1
2015-Jul-17 10:33N 36°31' W 001°47'1311.8
2015-Jul-17 09:26N 36°34' W 001°31'1112.0
2015-Jul-17 08:33N 36°36' W 001°18'1212.1
2015-Jul-17 07:33N 36°39' W 001°03'1212.2
2015-Jul-17 06:33N 36°41' W 000°48'1212.0
2015-Jul-17 05:32N 36°44' W 000°34'1212.0
2015-Jul-17 04:33N 36°47' W 000°19'1212.0
2015-Jul-17 03:33N 36°50' W 000°04'1212.1
2015-Jul-17 02:33N 36°52' E 000°10'1211.9
2015-Jul-17 01:33N 36°55' E 000°25'1212.0
2015-Jul-17 00:33N 36°58' E 000°39'1211.9
2015-Jul-16 23:33N 37°01' E 000°54'1211.6
2015-Jul-16 22:33N 37°04' E 001°08'2411.9
2015-Jul-16 20:33N 37°09' E 001°37'1312.2
2015-Jul-16 19:31N 37°12' E 001°52'1111.8
2015-Jul-16 18:33N 37°14' E 002°06'1212.0
2015-Jul-16 17:33N 37°17' E 002°21'1212.0
2015-Jul-16 16:33N 37°20' E 002°36'1311.8
2015-Jul-16 15:28N 37°23' E 002°51'2312.0
2015-Jul-16 13:33N 37°28' E 003°20'1212.0
2015-Jul-16 12:33N 37°30' E 003°34'1612.0
2015-Jul-16 11:13N 37°33' E 003°54'1412.2
2015-Jul-16 10:03N 37°35' E 004°12'9212.1
2015-Jul-16 02:25N 37°45' E 006°08'10912.3
2015-Jul-15 17:33N 37°55' E 008°25'2712.2
2015-Jul-15 15:20N 37°58' E 008°59'912.1
2015-Jul-15 14:33N 37°55' E 009°10'8711.8
2015-Jul-15 07:11N 37°35' E 010°57'1012.0
2015-Jul-15 06:19N 37°29' E 011°08'911.8
2015-Jul-15 05:33N 37°24' E 011°18'1212.0
2015-Jul-15 04:31N 37°19' E 011°32'2911.8
2015-Jul-15 02:03N 37°04' E 012°04'611.9
2015-Jul-15 01:33N 37°03' E 012°11'1211.5
2015-Jul-15 00:33N 36°58' E 012°24'1211.6
2015-Jul-14 23:33N 36°53' E 012°37'1211.5
2015-Jul-14 22:33N 36°49' E 012°51'1111.5
2015-Jul-14 21:33N 36°44' E 013°04'1212.0
2015-Jul-14 20:33N 36°39' E 013°17'1212.0
2015-Jul-14 19:33N 36°34' E 013°31'1212.1
2015-Jul-14 18:33N 36°29' E 013°45'1212.0
2015-Jul-14 17:33N 36°24' E 013°58'1211.8
2015-Jul-14 16:33N 36°19' E 014°11'1111.4
2015-Jul-14 15:33N 36°15' E 014°24'1111.4
2015-Jul-14 14:33N 36°12' E 014°38'1211.6
2015-Jul-14 13:33N 36°11' E 014°52'1211.8
2015-Jul-14 12:33N 36°13' E 015°07'1211.8
2015-Jul-14 11:33N 36°12' E 015°21'2812.0
2015-Jul-14 09:13N 36°10' E 015°56'2913.9
2015-Jul-14 07:08N 36°10' E 016°32'3513.0
2015-Jul-14 04:27N 36°09' E 017°15'2511.2
2015-Jul-14 02:16N 36°08' E 017°45'1211.4
2015-Jul-14 01:10N 36°08' E 018°01'3011.4
2015-Jul-13 22:32N 36°06' E 018°38'1511.5
2015-Jul-13 21:14N 36°06' E 018°56'285 9.9
2015-Jul-12 16:29N 37°52' E 024°28'  

Dump ship's entire track history